RACE 5 - A Fleet - 8/10/2016 at 18:00:00

Start: A Fleet, Finishes: Finish time, Time: 18:15:00, Distance: 5.1, Course: 1
Rank Fleet Boat Class SailNo HelmName Rating Start Finish Elapsed Corrected
1 A RUMFRONT J 105 51306 Martschink/McKemzie. 87 18:15:00 19:09:07 0:54:07 0:46:43
2 A Cougar Melges 30 USA 105 Goss 42 18:15:00 19:05:36 0:50:36 0:47:02
3 A PHOTON ID 35 35022 Hibdon 36 18:15:00 19:05:29 0:50:29 0:47:25
4 A Fearless ID 35 35029 Lucas 36 18:15:00 19:06:47 0:51:47 0:48:43
5 A SKIMMER J 105 313 Martschink/Hagood 87 18:15:00 19:11:41 0:56:41 0:49:17
6 A WARHORSE ID 35 MOD 35006 Frohock 36 18:15:00 19:07:44 0:52:44 0:49:40
7 A MOOSE DOWN J 120 CF 521201 Moore 48 18:15:00 19:10:06 0:55:06 0:51:01
8 A JOY RIDE J 105 TBD Scribner 87 18:15:00 19:14:01 0:59:01 0:51:37
9 A SOUL J 36 63393 Coyer 84 18:15:00 19:13:52 0:58:52 0:51:44
10 A Sceptre J 130 CF SD 28693 Musor 30 18:15:00 19:10:16 0:55:16 0:52:43
11 A ARROW J 35 32864 Schwenzfeier 72 18:15:00 19:16:20 1:01:20 0:55:13
12 A DAUNTLESS BENETEAU 47.7 28477B Terwilliger 21     DNC  
12 A KINETIC J 111 73 Stein 39     DNC  
12 A TEMPTRESS SR33 OB 50484 King 66     DNC  
12 A Different Drummer Azzura 310 1000 Gaag 57     DNC  

RACE 5 - B Fleet - 8/10/2016 at 18:00:00

Start: B Fleet, Finishes: Finish time, Time: 18:21:00, Distance: 5.1, Course: 1
Rank Fleet Boat Class SailNo HelmName Rating Start Finish Elapsed Corrected
1 B Blind Date J 24 USA1829 Adams 165 18:21:00 19:19:18 0:58:18 0:44:17
2 B ORANGE CRUSH J 24 828 Benjamin 165 18:21:00 19:20:28 0:59:28 0:45:27
3 B CHICORA J 24 2349 Hill 165 18:21:00 19:20:42 0:59:42 0:45:41
4 B JO MAMMA J 24 3266 Palazzo 165 18:21:00 19:21:12 1:00:12 0:46:11
5 B MATADORA J 24 5259 Rogge 165 18:21:00 19:22:06 1:01:06 0:47:05
6 B ORCA Evelyn 26 OD 23710 Sawyer 168 18:21:00 19:23:56 1:02:56 0:48:39
7 B Adaptive Expeditions J 22 445   174     DNC  

RACE 5 - C Fleet - 8/10/2016 at 18:00:00

Start: C Fleet, Finishes: Finish time, Time: 18:30:00, Distance: 5.1, Course: 1
Rank Fleet Boat Class SailNo HelmName Rating Start Finish Elapsed Corrected
1 C Fogdog Santana 30/30 GP 83472 Guhl 120 18:30:00 19:25:58 0:55:58 0:45:46
2 C INDIGO Pearson Vanguard 184 Dodds 228 18:30:00 19:36:31 1:06:31 0:47:08
3 C OLD SCHOOL S2 9.1 108 Jacques 132 18:30:00 19:33:05 1:03:05 0:51:52
4 C NAUT ON CALL Beneteau 381 51977 Evans 144 18:30:00 19:35:30 1:05:30 0:53:16
5 C TOHIDU Beneteau 423 52462 Cook 132 18:30:00 19:36:35 1:06:35 0:55:22
6 C CELADON MOORINGS 510 51704 Lesniak 96 18:30:00 19:34:06 1:04:06 0:55:56
7 C WHISPER Ericson 25+ 329 Miller 210 18:30:00 19:44:15 1:14:15 0:56:24
8 C QUINTETTE SABRE 38 32838 King 123 18:30:00 DNF 5:30:00 5:19:33
9 C Bliss Alerion Express 38-2 12 Brooks 111     DNC  
9 C Mental Heeling Catalina 30 5399 Keeney 204     DNC  

RACE 5 - N Fleet - 8/10/2016 at 18:00:00

Start: N Fleet, Finishes: Finish time, Time: 18:37:00, Distance: 4.6, Course: 4
Rank Fleet Boat Class SailNo HelmName Rating Start Finish Elapsed Corrected
1 N Rooster IC24 2519 McDonald 189 18:37:00 19:36:26 0:59:26 0:44:57
2 N KATANA XP-44 007 Fujita 77 18:37:00 19:29:42 0:52:42 0:46:48
3 N EMOCEAN J 120 Al 37120 Hanckel 62 18:37:00 19:32:17 0:55:17 0:50:32
4 N Deez Knots Hood 42 Custom 6565 Eggleton 141 18:37:00 19:39:14 1:02:14 0:51:25
5 N FATE Beneteau 49 15 Ryan 127 18:37:00 19:39:03 1:02:03 0:52:19
6 N 2 Sigma Jenneau Sun Odyssey 35 2604 Ethier 173 18:37:00 19:44:36 1:07:36 0:54:20
7 N Willaway Tartan 37-2 C 73196 Cross 160 18:37:00 19:44:40 1:07:40 0:55:24
8 N Kelly Krew Catalina 385 WK 212 Kelly 166 18:37:00 19:46:45 1:09:45 0:57:01
9 N Peregrine Beneteau 456 60451 Vienneau 122     DNC  
9 N SANTIAGO Beneteau OC 361 361 Chipman 173     DNC  

RACE 5 - D Fleet - 8/10/2016 at 18:00:00

Start: D Fleet, Finishes: Finish time, Time: 18:42:00, Distance: 4.6, Course: 4
Rank Fleet Boat Class SailNo HelmName Rating Start Finish Elapsed Corrected
1 D MOON RIVER KENNER PRIVATEER 26 116 Moore 276 18:42:00 19:43:39 1:01:39 0:40:29
2 D SEA CAMPER CATALINA 22 11629 Wood 295 18:42:00 19:46:25 1:04:25 0:41:48
3 D KNOT TWINS Pearson 30 1133 Smith 209 18:42:00 19:42:32 1:00:32 0:44:31
4 D KAMIKAZE 5 Morgan 30/2 569 Simons 201 18:42:00 19:42:35 1:00:35 0:45:10
5 D DIRECTION Morgan 30-2 7 Springer 201 18:42:00 19:42:49 1:00:49 0:45:24
6 D ENGLISH BEAT Catalina 30 TM BS 3895 Hill 207 18:42:00 19:44:39 1:02:39 0:46:47
7 D Kittiwake Catalina 30 261 Boring 218 18:42:00 19:49:33 1:07:33 0:50:50
8 D Tranquility Catalina 30 TM BS WK 381 Powell 212 18:42:00 19:52:58 1:10:58 0:54:43
9 D Cygnet Pearson 30 735 Morrisette 209     DNC